Adriatic Id — VRFP6 — position and weather

sailwx.info

Track history (hours):
 
Tides and Currents Weather Stations Pressure Air Temp Water Temp Dewpoint Dewpoint Depression Visibility Wind Speed Wind Dir Waves Ship Positions

Adriatic Id

Last reported at 2017-Aug-15 16:11 UTC. Time now 2017-Aug-18 03:11 UTC.
Position N 25°18' E 121°11'.

Length 158 m; draft 9.1 m.

Type: Cargo ship. MMSI: 477559800.

Date/timePositionNaut miles runAvg speedWind from/ knotsBaromVisibWave heightAir tempDewpointWater temp
2017-Aug-15 16:11N 25°18' E 121°11'10011.6
2017-Aug-15 07:35N 26°08' E 119°35'2 8.4
2017-Aug-15 07:20N 26°06' E 119°33'4 7.8
2017-Aug-15 06:48N 26°03' E 119°30'0 0.1
2017-Aug-14 23:09N 26°03' E 119°30'0 0.0
2017-Aug-14 22:57N 26°03' E 119°30'0 0.0
2017-Aug-14 22:09N 26°03' E 119°30'0 0.0
2017-Aug-14 21:57N 26°03' E 119°30'0 0.0
2017-Aug-14 21:27N 26°03' E 119°30'0 0.0
2017-Aug-14 20:51N 26°03' E 119°30'0 0.0
2017-Aug-14 20:27N 26°03' E 119°30'0 0.0
2017-Aug-14 19:57N 26°03' E 119°30'0 0.0
2017-Aug-14 19:27N 26°03' E 119°30'0 0.0
2017-Aug-14 18:57N 26°03' E 119°30'0 0.0
2017-Aug-14 17:57N 26°03' E 119°30'0 0.0
2017-Aug-14 17:21N 26°03' E 119°30'0 0.0
2017-Aug-14 16:45N 26°03' E 119°30'0 0.0
2017-Aug-14 16:09N 26°03' E 119°30'0 0.0
2017-Aug-14 15:51N 26°03' E 119°30'0 0.0
2017-Aug-14 14:27N 26°03' E 119°30'0 0.0
2017-Aug-14 13:57N 26°03' E 119°30'0 0.0
2017-Aug-14 13:27N 26°03' E 119°30'0 0.0
2017-Aug-14 12:57N 26°03' E 119°30'0 0.0
2017-Aug-14 12:15N 26°03' E 119°30'0 0.0
2017-Aug-14 10:51N 26°03' E 119°30'0 0.0
2017-Aug-14 09:21N 26°03' E 119°30'0 0.0
2017-Aug-14 01:27N 26°03' E 119°30'3 6.8
2017-Aug-14 00:58N 26°05' E 119°32'8 7.3
2017-Aug-13 23:51N 26°06' E 119°41'  
2017-Aug-11 04:16N 26°08' E 119°35'7 8.4
2017-Aug-11 03:29N 26°03' E 119°30'0 0.5
2017-Aug-11 02:46N 26°03' E 119°30'0 0.0
2017-Aug-10 22:45N 26°03' E 119°30'0 0.0
2017-Aug-10 07:00N 26°03' E 119°30'4 7.2
2017-Aug-10 06:25N 26°06' E 119°33'  
2017-Aug-08 01:37N 26°05' E 119°32'3 7.5
2017-Aug-08 01:15N 26°03' E 119°30'0 0.0
2017-Aug-07 07:18N 26°03' E 119°30'1 4.1
2017-Aug-07 06:58N 26°04' E 119°31'4 8.5
2017-Aug-07 06:29N 26°07' E 119°34'  
Track history (hours):
 
Tides and Currents Weather Stations Pressure Air Temp Water Temp Dewpoint Dewpoint Depression Visibility Wind Speed Wind Dir Waves Ship Positions

Adriatic Id

Last reported at 2017-Aug-15 16:11 UTC. Time now 2017-Aug-18 03:11 UTC.
Position N 25°18' E 121°11'.

Length 158 m; draft 9.1 m.

Type: Cargo ship. MMSI: 477559800.

Date/timePositionNaut miles runAvg speedWind from/ knotsBaromVisibWave heightAir tempDewpointWater temp
2017-Aug-15 16:11N 25°18' E 121°11'10011.6
2017-Aug-15 07:35N 26°08' E 119°35'2 8.4
2017-Aug-15 07:20N 26°06' E 119°33'4 7.8
2017-Aug-15 06:48N 26°03' E 119°30'0 0.1
2017-Aug-14 23:09N 26°03' E 119°30'0 0.0
2017-Aug-14 22:57N 26°03' E 119°30'0 0.0
2017-Aug-14 22:09N 26°03' E 119°30'0 0.0
2017-Aug-14 21:57N 26°03' E 119°30'0 0.0
2017-Aug-14 21:27N 26°03' E 119°30'0 0.0
2017-Aug-14 20:51N 26°03' E 119°30'0 0.0
2017-Aug-14 20:27N 26°03' E 119°30'0 0.0
2017-Aug-14 19:57N 26°03' E 119°30'0 0.0
2017-Aug-14 19:27N 26°03' E 119°30'0 0.0
2017-Aug-14 18:57N 26°03' E 119°30'0 0.0
2017-Aug-14 17:57N 26°03' E 119°30'0 0.0
2017-Aug-14 17:21N 26°03' E 119°30'0 0.0
2017-Aug-14 16:45N 26°03' E 119°30'0 0.0
2017-Aug-14 16:09N 26°03' E 119°30'0 0.0
2017-Aug-14 15:51N 26°03' E 119°30'0 0.0
2017-Aug-14 14:27N 26°03' E 119°30'0 0.0
2017-Aug-14 13:57N 26°03' E 119°30'0 0.0
2017-Aug-14 13:27N 26°03' E 119°30'0 0.0
2017-Aug-14 12:57N 26°03' E 119°30'0 0.0
2017-Aug-14 12:15N 26°03' E 119°30'0 0.0
2017-Aug-14 10:51N 26°03' E 119°30'0 0.0
2017-Aug-14 09:21N 26°03' E 119°30'0 0.0
2017-Aug-14 01:27N 26°03' E 119°30'3 6.8
2017-Aug-14 00:58N 26°05' E 119°32'8 7.3
2017-Aug-13 23:51N 26°06' E 119°41'  
2017-Aug-11 04:16N 26°08' E 119°35'7 8.4
2017-Aug-11 03:29N 26°03' E 119°30'0 0.5
2017-Aug-11 02:46N 26°03' E 119°30'0 0.0
2017-Aug-10 22:45N 26°03' E 119°30'0 0.0
2017-Aug-10 07:00N 26°03' E 119°30'4 7.2
2017-Aug-10 06:25N 26°06' E 119°33'  
2017-Aug-08 01:37N 26°05' E 119°32'3 7.5
2017-Aug-08 01:15N 26°03' E 119°30'0 0.0
2017-Aug-07 07:18N 26°03' E 119°30'1 4.1
2017-Aug-07 06:58N 26°04' E 119°31'4 8.5
2017-Aug-07 06:29N 26°07' E 119°34'  

Dump ship's entire track history